createdAt,value
2022-08-09T00:02:31.132Z,14.44
2022-08-09T00:07:44.457Z,14.34
2022-08-09T00:12:51.654Z,14.32
2022-08-09T00:18:07.523Z,14.24
2022-08-09T00:23:56.724Z,14.17
2022-08-09T00:28:39.717Z,14.11
2022-08-09T00:33:51.084Z,14.07
2022-08-09T00:38:54.700Z,14.02
2022-08-09T00:44:11.766Z,14.02
2022-08-09T00:49:21.797Z,13.99
2022-08-09T00:54:31.421Z,13.92
2022-08-09T00:59:40.906Z,13.88
2022-08-09T01:04:54.240Z,13.86
2022-08-09T01:10:03.906Z,13.84
2022-08-09T01:15:17.010Z,13.77
2022-08-09T01:20:25.909Z,13.69
2022-08-09T01:25:49.001Z,13.70
2022-08-09T01:30:59.164Z,13.70
2022-08-09T01:36:07.083Z,13.65
2022-08-09T01:41:15.112Z,13.56
2022-08-09T01:46:26.419Z,13.50
2022-08-09T01:51:32.492Z,13.44
2022-08-09T01:56:40.699Z,13.38
2022-08-09T02:01:59.088Z,13.34
2022-08-09T02:07:18.521Z,13.32
2022-08-09T02:12:34.929Z,13.26
2022-08-09T02:18:00.535Z,13.24
2022-08-09T02:23:08.950Z,13.19
2022-08-09T02:28:18.335Z,13.15
2022-08-09T02:33:38.397Z,13.15
2022-08-09T02:38:54.058Z,13.11
2022-08-09T02:44:10.568Z,13.09
2022-08-09T02:49:27.296Z,13.05
2022-08-09T02:54:54.578Z,13.02
2022-08-09T03:00:20.933Z,12.99
2022-08-09T03:05:27.690Z,12.99
2022-08-09T03:10:31.022Z,12.97
2022-08-09T03:16:04.591Z,12.93
2022-08-09T03:21:00.570Z,12.85
2022-08-09T03:26:05.156Z,12.79
2022-08-09T03:31:10.507Z,12.76
2022-08-09T03:36:27.374Z,12.77
2022-08-09T03:41:48.410Z,12.70
2022-08-09T03:46:52.025Z,12.65
2022-08-09T03:52:00.294Z,12.62
2022-08-09T03:57:18.120Z,12.62
2022-08-09T04:02:26.428Z,12.60
2022-08-09T04:07:52.281Z,12.52
2022-08-09T04:13:01.084Z,12.46
2022-08-09T04:18:08.570Z,12.44
2022-08-09T04:23:17.405Z,12.48
2022-08-09T04:28:30.810Z,12.59
2022-08-09T04:33:53.207Z,12.60
2022-08-09T04:39:04.716Z,12.59
2022-08-09T04:44:11.984Z,12.68
2022-08-09T04:49:17.378Z,12.84
2022-08-09T04:54:34.862Z,13.02
2022-08-09T04:59:38.080Z,13.13
2022-08-09T05:04:41.099Z,13.23
2022-08-09T05:09:49.891Z,13.38
2022-08-09T05:14:53.012Z,13.56
2022-08-09T05:19:56.832Z,13.78
2022-08-09T05:25:02.669Z,13.99
2022-08-09T05:30:06.417Z,14.19
2022-08-09T05:35:11.284Z,14.45
2022-08-09T05:40:16.595Z,14.72
2022-08-09T05:45:21.264Z,14.97
2022-08-09T05:50:50.639Z,15.25
2022-08-09T05:55:53.149Z,15.52
2022-08-09T06:00:58.212Z,15.78
2022-08-09T06:06:05.859Z,16.08
2022-08-09T06:11:16.359Z,16.36
2022-08-09T06:16:22.184Z,16.62
2022-08-09T06:21:25.018Z,16.91
2022-08-09T06:26:29.926Z,17.23
2022-08-09T06:31:40.251Z,17.63
2022-08-09T06:36:59.666Z,18.05
2022-08-09T06:42:08.684Z,18.41
2022-08-09T06:47:14.288Z,18.67
2022-08-09T06:52:17.866Z,19.04
2022-08-09T06:57:42.541Z,19.48
2022-08-09T07:02:45.900Z,19.81
2022-08-09T07:08:00.450Z,20.07
2022-08-09T07:13:28.357Z,20.20
2022-08-09T07:18:29.030Z,20.46
2022-08-09T07:23:36.260Z,20.61
2022-08-09T07:29:08.935Z,20.80
2022-08-09T07:33:58.286Z,21.23
2022-08-09T07:39:03.037Z,21.61
2022-08-09T07:44:07.404Z,21.95
2022-08-09T07:49:15.471Z,21.89
2022-08-09T07:54:19.149Z,22.15
2022-08-09T07:59:34.370Z,22.38
2022-08-09T08:04:54.050Z,22.68
2022-08-09T08:10:07.787Z,23.03
2022-08-09T08:15:16.697Z,23.09
2022-08-09T08:20:29.111Z,23.53
2022-08-09T08:25:44.070Z,23.48
2022-08-09T08:30:50.274Z,23.52
2022-08-09T08:36:00.155Z,23.59
2022-08-09T08:41:05.763Z,23.82
2022-08-09T08:46:33.112Z,23.92
2022-08-09T08:51:41.524Z,23.42
2022-08-09T08:57:00.572Z,23.27
2022-08-09T09:02:07.250Z,23.32
2022-08-09T09:07:12.557Z,23.56
2022-08-09T09:12:17.190Z,23.67
2022-08-09T09:17:21.461Z,23.66
2022-08-09T09:22:28.886Z,23.70
2022-08-09T09:28:05.728Z,24.11
2022-08-09T09:33:15.912Z,24.28
2022-08-09T09:38:27.904Z,24.23
2022-08-09T09:43:41.643Z,24.17
2022-08-09T09:49:07.650Z,24.15
2022-08-09T09:54:20.621Z,24.20
2022-08-09T09:59:36.896Z,24.05
2022-08-09T10:04:41.753Z,23.94
2022-08-09T10:09:48.709Z,23.94
2022-08-09T10:14:52.022Z,24.34
2022-08-09T10:19:57.264Z,24.80
2022-08-09T10:25:12.171Z,25.11
2022-08-09T10:35:44.385Z,24.97
2022-08-09T10:40:50.099Z,24.94
2022-08-09T10:45:59.809Z,24.91
2022-08-09T10:51:16.572Z,25.25
2022-08-09T10:56:23.341Z,25.98
2022-08-09T11:03:12.075Z,26.10
2022-08-09T11:07:57.811Z,25.54
2022-08-09T11:13:49.478Z,25.14
2022-08-09T11:18:45.096Z,24.90
2022-08-09T11:24:01.519Z,24.77
2022-08-09T11:29:07.130Z,24.81
2022-08-09T11:34:18.725Z,24.93
2022-08-09T11:39:24.210Z,24.82
2022-08-09T11:44:45.201Z,25.09
2022-08-09T11:50:54.842Z,25.25
2022-08-09T11:55:51.949Z,25.25
2022-08-09T12:00:59.939Z,25.32
2022-08-09T12:06:10.027Z,25.31
2022-08-09T12:11:16.010Z,25.42
2022-08-09T12:16:37.487Z,25.52
2022-08-09T12:21:48.832Z,25.71
2022-08-09T12:29:13.478Z,25.79
2022-08-09T12:32:27.487Z,26.04
2022-08-09T12:37:44.047Z,26.02
2022-08-09T12:42:55.712Z,25.70
2022-08-09T12:47:59.405Z,25.49
2022-08-09T12:53:09.628Z,25.41
2022-08-09T12:58:24.348Z,25.67
2022-08-09T13:03:53.289Z,25.83
2022-08-09T13:09:11.106Z,26.11
2022-08-09T13:14:40.762Z,26.05
2022-08-09T13:20:07.574Z,26.02
2022-08-09T13:25:11.914Z,26.33
2022-08-09T13:31:11.156Z,26.45
2022-08-09T13:36:37.869Z,26.16
2022-08-09T13:41:51.669Z,25.82
2022-08-09T13:47:17.762Z,25.92
2022-08-09T13:52:00.975Z,25.98
2022-08-09T13:57:06.410Z,25.97
2022-08-09T14:02:11.015Z,25.74
2022-08-09T14:07:13.942Z,25.71
2022-08-09T14:12:17.327Z,25.79
2022-08-09T14:17:22.808Z,25.70
2022-08-09T14:22:26.158Z,25.71
2022-08-09T14:27:34.011Z,25.98
2022-08-09T14:32:38.619Z,26.14
2022-08-09T14:38:02.295Z,26.25
2022-08-09T14:43:04.567Z,26.60
2022-08-09T14:48:08.770Z,26.44
2022-08-09T14:53:14.450Z,26.38
2022-08-09T14:58:20.190Z,26.47
2022-08-09T15:03:24.421Z,26.50
2022-08-09T15:08:30.360Z,26.66
2022-08-09T15:13:48.416Z,26.71
2022-08-09T15:18:59.706Z,26.68
2022-08-09T15:24:13.059Z,26.65
2022-08-09T15:30:55.521Z,26.64
2022-08-09T15:34:44.613Z,26.81
2022-08-09T15:39:53.798Z,26.31
2022-08-09T15:44:58.348Z,26.21
2022-08-09T15:50:05.404Z,26.08
2022-08-09T15:55:10.883Z,26.30
2022-08-09T16:00:24.717Z,26.28
2022-08-09T16:05:47.123Z,26.23
2022-08-09T16:10:56.411Z,26.29
2022-08-09T16:16:10.960Z,26.23
2022-08-09T16:21:25.801Z,26.00
2022-08-09T16:26:34.555Z,25.78
2022-08-09T16:32:19.085Z,25.72
2022-08-09T16:37:04.065Z,25.62
2022-08-09T16:42:11.030Z,25.46
2022-08-09T16:48:40.065Z,25.37
2022-08-09T16:52:43.086Z,25.27
2022-08-09T16:58:09.321Z,25.07
2022-08-09T17:03:09.221Z,24.88
2022-08-09T17:08:42.774Z,24.75
2022-08-09T17:14:01.661Z,24.61
2022-08-09T17:19:05.499Z,24.59
2022-08-09T17:24:26.901Z,24.50
2022-08-09T17:29:37.888Z,24.46
2022-08-09T17:35:04.116Z,24.39
2022-08-09T17:40:18.103Z,24.24
2022-08-09T17:45:27.208Z,24.05
2022-08-09T17:50:37.014Z,23.93
2022-08-09T17:55:48.844Z,23.79
2022-08-09T18:00:56.273Z,23.67
2022-08-09T18:06:00.875Z,23.52
2022-08-09T18:11:05.357Z,23.43
2022-08-09T18:16:10.710Z,23.42
2022-08-09T18:21:22.795Z,23.33
2022-08-09T18:26:28.044Z,23.19
2022-08-09T18:31:51.468Z,23.09
2022-08-09T18:36:54.215Z,22.96
2022-08-09T18:41:58.800Z,22.84
2022-08-09T18:47:08.074Z,22.66
2022-08-09T18:52:18.780Z,22.47
2022-08-09T18:57:43.379Z,22.39
2022-08-09T19:02:48.019Z,22.27
2022-08-09T19:08:04.190Z,22.16
2022-08-09T19:13:19.269Z,22.04
2022-08-09T19:18:33.198Z,21.93
2022-08-09T19:24:39.447Z,21.76
2022-08-09T19:29:15.564Z,21.62
2022-08-09T19:34:24.797Z,21.43
2022-08-09T19:40:02.298Z,21.25
2022-08-09T19:44:53.625Z,21.18
2022-08-09T19:50:08.544Z,21.09
2022-08-09T19:55:19.723Z,21.03
2022-08-09T20:00:35.201Z,21.00
2022-08-09T20:05:46.690Z,20.91
2022-08-09T20:10:53.402Z,20.80
2022-08-09T20:16:37.175Z,20.61
2022-08-09T20:21:22.104Z,20.45
2022-08-09T20:26:43.722Z,20.29
2022-08-09T20:32:16.996Z,20.21
2022-08-09T20:37:12.897Z,20.14
2022-08-09T20:42:16.963Z,20.04
2022-08-09T20:47:45.241Z,19.94
2022-08-09T20:52:45.196Z,19.80
2022-08-09T20:58:08.433Z,19.70
2022-08-09T21:03:12.377Z,19.62
2022-08-09T21:08:22.441Z,19.54
2022-08-09T21:13:45.951Z,19.46
2022-08-09T21:20:19.055Z,19.39
2022-08-09T21:24:28.559Z,19.32
2022-08-09T21:29:48.506Z,19.25
2022-08-09T21:34:53.437Z,19.17
2022-08-09T21:39:56.389Z,19.01
2022-08-09T21:44:59.349Z,18.83
2022-08-09T21:50:03.758Z,18.70
2022-08-09T21:55:08.423Z,18.56
2022-08-09T22:00:25.305Z,18.39
2022-08-09T22:05:35.973Z,18.25
2022-08-09T22:11:00.749Z,18.14
2022-08-09T22:16:03.944Z,18.02
2022-08-09T22:21:09.210Z,17.85
2022-08-09T22:26:12.951Z,17.74
2022-08-09T22:31:35.894Z,17.65
2022-08-09T22:36:45.788Z,17.57
2022-08-09T22:41:49.305Z,17.45
2022-08-09T22:48:13.804Z,17.34
2022-08-09T22:52:17.711Z,17.18
2022-08-09T22:57:22.572Z,17.04
2022-08-09T23:02:34.669Z,16.92
2022-08-09T23:08:22.097Z,16.84
2022-08-09T23:13:23.916Z,16.80
2022-08-09T23:18:26.824Z,16.78
2022-08-09T23:23:31.084Z,16.71
2022-08-09T23:28:34.004Z,16.58
2022-08-09T23:33:36.983Z,16.50
2022-08-09T23:38:48.847Z,16.40
2022-08-09T23:43:55.107Z,16.26
2022-08-09T23:48:58.588Z,16.14
2022-08-09T23:54:03.625Z,16.05
2022-08-09T23:59:06.589Z,15.92
